createdAt,value
2019-04-04T00:00:33.644Z,17.07
2019-04-04T00:03:13.895Z,18.30
2019-04-04T00:05:43.424Z,12.73
2019-04-04T00:08:12.996Z,14.47
2019-04-04T00:10:39.369Z,13.03
2019-04-04T00:13:30.758Z,16.27
2019-04-04T00:16:08.454Z,14.53
2019-04-04T00:18:52.215Z,20.00
2019-04-04T00:21:18.497Z,18.30
2019-04-04T00:23:47.826Z,18.60
2019-04-04T00:26:20.139Z,19.13
2019-04-04T00:29:04.751Z,21.07
2019-04-04T00:31:37.269Z,19.77
2019-04-04T00:34:14.651Z,18.63
2019-04-04T00:36:44.071Z,19.70
2019-04-04T00:39:22.608Z,18.53
2019-04-04T00:41:59.018Z,18.07
2019-04-04T00:44:28.389Z,15.10
2019-04-04T00:46:55.776Z,15.43
2019-04-04T00:49:25.302Z,18.90
2019-04-04T00:55:28.972Z,15.23
2019-04-04T00:58:04.613Z,17.27
2019-04-04T01:00:43.569Z,15.97
2019-04-04T01:03:18.795Z,18.53
2019-04-04T01:05:48.226Z,19.40
2019-04-04T01:08:20.756Z,17.90
2019-04-04T01:11:23.350Z,19.33
2019-04-04T01:13:52.827Z,17.27
2019-04-04T01:16:33.701Z,15.40
2019-04-04T01:19:00.385Z,13.98
2019-04-04T01:21:32.562Z,15.87
2019-04-04T01:23:59.018Z,17.87
2019-04-04T01:26:43.491Z,16.53
2019-04-04T01:29:20.268Z,16.50
2019-04-04T01:31:55.499Z,19.80
2019-04-04T01:34:28.904Z,17.93
2019-04-04T01:37:07.612Z,19.00
2019-04-04T01:39:37.131Z,18.67
2019-04-04T01:42:07.158Z,17.67
2019-04-04T01:44:42.124Z,16.13
2019-04-04T01:47:25.728Z,20.83
2019-04-04T01:49:55.103Z,17.93
2019-04-04T01:55:49.397Z,18.47
2019-04-04T01:58:18.834Z,20.90
2019-04-04T02:00:48.192Z,19.90
2019-04-04T02:03:24.794Z,16.83
2019-04-04T02:06:22.102Z,17.47
2019-04-04T02:08:48.453Z,16.60
2019-04-04T02:11:18.150Z,16.67
2019-04-04T02:13:50.436Z,17.23
2019-04-04T02:16:32.131Z,18.70
2019-04-04T02:19:01.513Z,15.60
2019-04-04T02:21:30.948Z,17.87
2019-04-04T02:24:11.739Z,18.03
2019-04-04T02:26:41.108Z,19.70
2019-04-04T02:29:11.093Z,17.47
2019-04-04T02:31:43.101Z,15.23
2019-04-04T02:34:32.475Z,15.30
2019-04-04T02:37:03.559Z,14.27
2019-04-04T02:39:37.693Z,14.40
2019-04-04T02:42:12.357Z,17.23
2019-04-04T02:44:43.792Z,16.13
2019-04-04T02:47:26.244Z,13.83
2019-04-04T02:49:54.585Z,12.33
2019-04-04T02:52:23.980Z,16.03
2019-04-04T02:55:05.697Z,12.27
2019-04-04T02:57:41.152Z,14.68
2019-04-04T03:00:09.490Z,12.67
2019-04-04T03:02:48.238Z,12.07
2019-04-04T03:05:19.983Z,13.30
2019-04-04T03:10:27.690Z,13.00
2019-04-04T03:13:03.261Z,14.90
2019-04-04T03:15:31.728Z,13.67
2019-04-04T03:18:03.905Z,12.60
2019-04-04T03:20:49.043Z,13.72
2019-04-04T03:23:12.555Z,13.77
2019-04-04T03:25:52.931Z,14.37
2019-04-04T03:28:19.245Z,12.10
2019-04-04T03:31:01.820Z,14.33
2019-04-04T03:33:31.464Z,16.53
2019-04-04T03:36:01.016Z,15.50
2019-04-04T03:38:30.860Z,22.95
2019-04-04T03:40:57.883Z,18.83
2019-04-04T03:43:30.898Z,14.63
2019-04-04T03:46:01.534Z,15.70
2019-04-04T03:48:43.512Z,18.83
2019-04-04T03:51:16.896Z,12.20
2019-04-04T03:53:54.306Z,12.80
2019-04-04T03:56:33.337Z,16.43
2019-04-04T03:59:15.945Z,16.43
2019-04-04T04:02:17.860Z,16.93
2019-04-04T04:05:06.511Z,20.10
2019-04-04T04:08:24.813Z,17.70
2019-04-04T04:11:04.705Z,18.63
2019-04-04T04:13:36.653Z,19.67
2019-04-04T04:16:06.930Z,16.97
2019-04-04T04:22:12.751Z,18.33
2019-04-04T04:25:04.653Z,19.03
2019-04-04T04:27:30.906Z,19.40
2019-04-04T04:30:00.209Z,20.73
2019-04-04T04:32:25.827Z,27.67
2019-04-04T04:34:59.152Z,17.27
2019-04-04T04:37:25.796Z,20.17
2019-04-04T04:40:01.732Z,17.20
2019-04-04T04:43:03.877Z,21.80
2019-04-04T04:52:29.786Z,21.43
2019-04-04T04:55:18.711Z,19.03
2019-04-04T04:57:56.258Z,19.33
2019-04-04T05:07:32.843Z,22.63
2019-04-04T05:10:00.438Z,29.23
2019-04-04T05:15:55.204Z,17.63
2019-04-04T05:18:30.522Z,18.30
2019-04-04T05:21:08.194Z,18.57
2019-04-04T05:23:40.644Z,17.03
2019-04-04T05:26:17.134Z,13.57
2019-04-04T05:28:53.528Z,14.17
2019-04-04T05:34:37.498Z,14.90
2019-04-04T05:40:45.262Z,16.90
2019-04-04T05:46:53.008Z,17.13
2019-04-04T05:49:28.659Z,13.43
2019-04-04T05:51:56.138Z,15.87
2019-04-04T05:54:22.517Z,13.80
2019-04-04T05:56:49.639Z,15.47
2019-04-04T05:59:35.345Z,15.30
2019-04-04T06:02:13.069Z,15.67
2019-04-04T06:04:59.300Z,14.93
2019-04-04T06:07:51.076Z,18.27
2019-04-04T06:10:57.983Z,16.30
2019-04-04T06:13:45.485Z,16.40
2019-04-04T06:17:01.345Z,18.10
2019-04-04T06:19:27.879Z,19.37
2019-04-04T06:25:24.086Z,14.37
2019-04-04T06:27:51.817Z,12.93
2019-04-04T06:33:58.987Z,15.40
2019-04-04T06:36:25.668Z,15.97
2019-04-04T06:42:21.125Z,14.47
2019-04-04T06:44:59.613Z,13.50
2019-04-04T06:47:33.171Z,13.30
2019-04-04T06:53:28.594Z,23.43
2019-04-04T06:56:00.362Z,19.67
2019-04-04T06:58:29.594Z,19.27
2019-04-04T07:00:56.327Z,22.30
2019-04-04T07:03:29.062Z,17.20
2019-04-04T07:06:13.489Z,12.33
2019-04-04T07:08:59.459Z,9.03
2019-04-04T07:11:28.773Z,9.77
2019-04-04T07:13:57.019Z,10.90
2019-04-04T07:16:43.088Z,13.00
2019-04-04T07:19:15.796Z,8.60
2019-04-04T07:21:45.477Z,12.77
2019-04-04T07:24:15.270Z,9.20
2019-04-04T07:26:46.117Z,13.40
2019-04-04T07:29:13.141Z,9.93
2019-04-04T07:31:45.438Z,10.23
2019-04-04T07:34:13.840Z,10.07
2019-04-04T07:36:41.760Z,8.90
2019-04-04T07:39:08.537Z,9.30
2019-04-04T07:41:35.276Z,11.07
2019-04-04T07:44:01.684Z,8.17
2019-04-04T07:46:33.348Z,7.03
2019-04-04T07:49:00.753Z,6.95
2019-04-04T07:51:30.931Z,9.17
2019-04-04T07:53:57.315Z,8.20
2019-04-04T07:56:23.904Z,9.20
2019-04-04T07:58:56.665Z,8.67
2019-04-04T08:01:34.193Z,13.53
2019-04-04T08:04:06.508Z,12.77
2019-04-04T08:06:36.338Z,8.48
2019-04-04T08:09:06.051Z,10.68
2019-04-04T08:11:33.646Z,9.98
2019-04-04T08:14:06.075Z,8.28
2019-04-04T08:16:32.893Z,9.63
2019-04-04T08:18:59.410Z,9.85
2019-04-04T08:21:28.306Z,9.57
2019-04-04T08:24:10.981Z,10.37
2019-04-04T08:26:40.775Z,11.30
2019-04-04T08:29:13.329Z,9.77
2019-04-04T08:31:45.896Z,11.27
2019-04-04T08:34:13.720Z,9.50
2019-04-04T08:36:42.787Z,10.37
2019-04-04T08:39:12.495Z,11.27
2019-04-04T08:41:41.134Z,10.50
2019-04-04T08:44:11.096Z,10.03
2019-04-04T08:46:55.787Z,9.77
2019-04-04T08:49:32.671Z,8.77
2019-04-04T08:52:00.705Z,8.87
2019-04-04T08:54:27.749Z,9.30
2019-04-04T08:56:54.652Z,15.28
2019-04-04T08:59:23.228Z,9.48
2019-04-04T09:01:55.540Z,10.60
2019-04-04T09:04:24.023Z,8.75
2019-04-04T09:06:51.134Z,8.73
2019-04-04T09:09:34.455Z,8.70
2019-04-04T09:11:59.935Z,8.18
2019-04-04T09:14:41.100Z,9.08
2019-04-04T09:17:11.018Z,8.83
2019-04-04T09:19:38.653Z,7.90
2019-04-04T09:22:05.153Z,8.88
2019-04-04T09:24:57.529Z,9.68
2019-04-04T09:30:28.934Z,10.88
2019-04-04T09:33:00.339Z,7.30
2019-04-04T09:35:27.185Z,7.53
2019-04-04T09:37:57.353Z,7.17
2019-04-04T09:40:27.113Z,8.73
2019-04-04T09:42:57.153Z,10.80
2019-04-04T09:45:33.333Z,8.05
2019-04-04T09:48:00.159Z,8.08
2019-04-04T09:50:42.063Z,7.87
2019-04-04T09:53:16.341Z,8.10
2019-04-04T09:55:49.713Z,11.25
2019-04-04T09:58:25.092Z,7.53
2019-04-04T10:00:51.721Z,8.35
2019-04-04T10:03:21.641Z,9.68
2019-04-04T10:05:49.741Z,9.80
2019-04-04T10:08:24.057Z,9.25
2019-04-04T10:10:56.581Z,9.63
2019-04-04T10:13:33.733Z,9.65
2019-04-04T10:16:00.299Z,9.95
2019-04-04T10:18:28.949Z,8.15
2019-04-04T10:21:11.108Z,10.15
2019-04-04T10:23:35.485Z,11.10
2019-04-04T10:26:10.095Z,9.70
2019-04-04T10:28:39.552Z,7.83
2019-04-04T10:31:12.028Z,9.88
2019-04-04T10:33:42.397Z,7.28
2019-04-04T10:36:12.273Z,7.85
2019-04-04T10:38:38.731Z,9.80
2019-04-04T10:41:08.267Z,8.95
2019-04-04T10:43:34.823Z,10.82
2019-04-04T10:46:05.594Z,10.60
2019-04-04T10:48:43.679Z,6.93
2019-04-04T10:51:13.845Z,7.83
2019-04-04T10:53:45.016Z,9.70
2019-04-04T10:56:12.176Z,8.23
2019-04-04T10:58:44.995Z,8.40
2019-04-04T11:01:11.698Z,8.50
2019-04-04T11:03:45.197Z,7.15
2019-04-04T11:06:18.115Z,8.90
2019-04-04T11:08:52.318Z,9.85
2019-04-04T11:11:20.692Z,7.50
2019-04-04T11:14:09.646Z,6.78
2019-04-04T11:16:40.787Z,11.18
2019-04-04T11:19:09.798Z,7.22
2019-04-04T11:21:39.566Z,7.17
2019-04-04T11:24:12.154Z,6.65
2019-04-04T11:26:41.656Z,8.10
2019-04-04T11:29:17.889Z,10.60
2019-04-04T11:31:56.842Z,6.70
2019-04-04T11:34:26.480Z,7.25
2019-04-04T11:36:58.744Z,8.25
2019-04-04T11:39:54.145Z,6.47
2019-04-04T11:42:15.864Z,6.78
2019-04-04T11:45:16.748Z,5.60
2019-04-04T11:47:53.810Z,6.85
2019-04-04T11:53:38.217Z,7.45
2019-04-04T11:56:04.455Z,8.70
2019-04-04T11:58:38.355Z,6.03
2019-04-04T12:01:13.345Z,6.78
2019-04-04T12:03:43.950Z,6.65
2019-04-04T12:06:15.829Z,5.25
2019-04-04T12:09:16.947Z,5.92
2019-04-04T12:11:45.888Z,7.53
2019-04-04T12:14:19.787Z,5.53
2019-04-04T12:16:46.645Z,5.47
2019-04-04T12:19:16.587Z,6.22
2019-04-04T12:21:46.321Z,5.47
2019-04-04T12:24:18.883Z,6.50
2019-04-04T12:26:51.412Z,6.40
2019-04-04T12:29:40.157Z,7.53
2019-04-04T12:32:11.672Z,7.75
2019-04-04T12:34:38.431Z,7.85
2019-04-04T12:37:13.658Z,8.23
2019-04-04T12:39:44.439Z,5.55
2019-04-04T12:42:27.621Z,6.25
2019-04-04T12:45:01.192Z,8.10
2019-04-04T12:47:28.034Z,7.67
2019-04-04T12:50:16.676Z,6.53
2019-04-04T12:52:50.880Z,8.20
2019-04-04T12:55:18.150Z,6.17
2019-04-04T12:57:48.331Z,6.28
2019-04-04T13:00:21.886Z,5.87
2019-04-04T13:02:51.849Z,4.62
2019-04-04T13:05:19.961Z,5.78
2019-04-04T13:07:49.350Z,5.95
2019-04-04T13:10:17.446Z,4.40
2019-04-04T13:12:45.395Z,6.80
2019-04-04T13:15:18.275Z,7.87
2019-04-04T13:17:54.245Z,8.00
2019-04-04T13:20:28.659Z,5.08
2019-04-04T13:23:02.335Z,4.97
2019-04-04T13:25:32.275Z,7.03
2019-04-04T13:28:00.159Z,5.42
2019-04-04T13:30:27.061Z,6.58
2019-04-04T13:32:55.872Z,5.22
2019-04-04T13:35:26.052Z,7.87
2019-04-04T13:37:56.249Z,5.83
2019-04-04T13:40:26.866Z,6.55
2019-04-04T13:42:53.989Z,7.35
2019-04-04T13:45:26.078Z,6.62
2019-04-04T13:47:58.882Z,6.08
2019-04-04T13:50:28.581Z,7.37
2019-04-04T13:52:57.686Z,7.78
2019-04-04T13:55:30.820Z,5.20
2019-04-04T13:57:58.619Z,5.80
2019-04-04T14:00:30.360Z,7.97
2019-04-04T14:03:03.633Z,7.78
2019-04-04T14:05:44.502Z,8.28
2019-04-04T14:08:11.018Z,7.97
2019-04-04T14:10:38.776Z,7.92
2019-04-04T14:13:17.640Z,5.45
2019-04-04T14:15:51.374Z,7.08
2019-04-04T14:18:39.817Z,7.45
2019-04-04T14:21:27.371Z,4.80
2019-04-04T14:24:12.480Z,7.90
2019-04-04T14:26:41.793Z,8.03
2019-04-04T14:32:02.187Z,6.95
2019-04-04T14:34:46.663Z,6.22
2019-04-04T14:37:20.602Z,4.95
2019-04-04T14:39:57.703Z,5.90
2019-04-04T14:42:26.382Z,5.10
2019-04-04T14:44:54.592Z,6.08
2019-04-04T14:47:25.095Z,6.67
2019-04-04T14:50:14.142Z,5.90
2019-04-04T14:52:57.382Z,6.62
2019-04-04T14:55:23.653Z,5.97
2019-04-04T14:57:53.182Z,5.58
2019-04-04T15:00:39.370Z,5.30
2019-04-04T15:03:12.103Z,5.28
2019-04-04T15:05:41.509Z,7.00
2019-04-04T15:08:22.727Z,7.87
2019-04-04T15:11:01.374Z,6.33
2019-04-04T15:13:36.077Z,6.53
2019-04-04T15:16:18.195Z,7.58
2019-04-04T15:18:54.584Z,6.90
2019-04-04T15:21:25.056Z,6.15
2019-04-04T15:23:57.950Z,5.60
2019-04-04T15:26:36.976Z,6.55
2019-04-04T15:29:06.444Z,5.33
2019-04-04T15:31:42.971Z,7.22
2019-04-04T15:34:15.898Z,7.15
2019-04-04T15:36:43.109Z,8.98
2019-04-04T15:39:12.611Z,9.65
2019-04-04T15:41:47.920Z,7.65
2019-04-04T15:44:17.281Z,7.37
2019-04-04T15:46:59.984Z,6.87
2019-04-04T15:49:28.975Z,5.62
2019-04-04T15:51:59.703Z,5.35
2019-04-04T15:54:45.166Z,7.33
2019-04-04T15:57:19.947Z,5.87
2019-04-04T15:59:59.737Z,7.50
2019-04-04T16:02:28.029Z,6.83
2019-04-04T16:05:00.672Z,8.33
2019-04-04T16:07:36.356Z,8.38
2019-04-04T16:10:09.584Z,13.00
2019-04-04T16:12:36.541Z,7.40
2019-04-04T16:15:09.832Z,7.90
2019-04-04T16:17:39.811Z,7.75
2019-04-04T16:20:07.671Z,7.35
2019-04-04T16:22:34.091Z,9.63
2019-04-04T16:25:06.700Z,8.55
2019-04-04T16:27:38.923Z,6.55
2019-04-04T16:30:08.618Z,7.97
2019-04-04T16:32:38.472Z,8.25
2019-04-04T16:35:08.170Z,7.28
2019-04-04T16:37:37.559Z,6.60
2019-04-04T16:40:10.203Z,7.62
2019-04-04T16:42:38.822Z,5.33
2019-04-04T16:45:11.242Z,5.30
2019-04-04T16:47:37.760Z,5.55
2019-04-04T16:50:06.044Z,6.90
2019-04-04T16:52:50.984Z,8.13
2019-04-04T16:55:32.925Z,6.00
2019-04-04T16:58:10.097Z,5.55
2019-04-04T17:00:40.526Z,8.28
2019-04-04T17:03:10.774Z,6.55
2019-04-04T17:05:39.961Z,5.87
2019-04-04T17:08:10.476Z,5.10
2019-04-04T17:10:43.084Z,7.47
2019-04-04T17:13:21.066Z,7.25
2019-04-04T17:15:50.943Z,6.15
2019-04-04T17:18:21.648Z,5.45
2019-04-04T17:20:48.201Z,7.22
2019-04-04T17:23:22.026Z,6.05
2019-04-04T17:25:52.125Z,6.00
2019-04-04T17:28:23.840Z,6.55
2019-04-04T17:30:51.044Z,9.58
2019-04-04T17:33:17.507Z,10.28
2019-04-04T17:35:50.999Z,7.87
2019-04-04T17:38:19.326Z,8.88
2019-04-04T17:40:49.150Z,9.03
2019-04-04T17:43:23.038Z,9.40
2019-04-04T17:45:50.743Z,10.60
2019-04-04T17:48:32.137Z,7.87
2019-04-04T17:51:01.946Z,8.88
2019-04-04T17:53:33.184Z,7.35
2019-04-04T17:59:41.905Z,7.05
2019-04-04T18:02:10.611Z,7.53
2019-04-04T18:04:48.649Z,9.43
2019-04-04T18:07:26.990Z,10.93
2019-04-04T18:10:05.510Z,7.83
2019-04-04T18:12:40.414Z,7.12
2019-04-04T18:15:14.976Z,8.05
2019-04-04T18:17:46.256Z,8.05
2019-04-04T18:20:37.015Z,8.33
2019-04-04T18:23:04.030Z,8.73
2019-04-04T18:26:08.610Z,6.67
2019-04-04T18:28:42.169Z,7.17
2019-04-04T18:31:08.856Z,9.70
2019-04-04T18:33:37.283Z,10.07
2019-04-04T18:36:13.866Z,7.50
2019-04-04T18:38:43.686Z,11.63
2019-04-04T18:41:14.431Z,11.47
2019-04-04T18:43:44.474Z,9.17
2019-04-04T18:46:14.591Z,10.13
2019-04-04T18:48:52.497Z,10.80
2019-04-04T18:51:19.859Z,13.07
2019-04-04T18:53:52.407Z,13.10
2019-04-04T18:58:50.967Z,13.83
2019-04-04T19:01:24.255Z,23.73
2019-04-04T19:03:58.052Z,16.20
2019-04-04T19:06:27.811Z,10.80
2019-04-04T19:08:54.872Z,11.40
2019-04-04T19:11:22.949Z,11.63
2019-04-04T19:14:06.963Z,12.00
2019-04-04T19:16:42.087Z,14.30
2019-04-04T19:19:09.106Z,12.47
2019-04-04T19:21:36.044Z,11.30
2019-04-04T19:24:19.019Z,14.10
2019-04-04T19:26:52.945Z,13.03
2019-04-04T19:29:26.353Z,12.30
2019-04-04T19:33:04.419Z,15.90
2019-04-04T19:35:41.476Z,18.87
2019-04-04T19:38:14.261Z,19.20
2019-04-04T19:40:43.831Z,16.33
2019-04-04T19:43:25.632Z,11.63
2019-04-04T19:45:55.291Z,13.55
2019-04-04T19:48:25.163Z,13.73
2019-04-04T19:51:08.749Z,12.60
2019-04-04T19:53:35.200Z,15.10
2019-04-04T19:56:06.705Z,13.53
2019-04-04T19:58:37.404Z,14.30
2019-04-04T20:01:08.682Z,14.73
2019-04-04T20:03:35.921Z,14.87
2019-04-04T20:06:06.242Z,18.77
2019-04-04T20:08:33.097Z,17.00
2019-04-04T20:11:11.677Z,17.40
2019-04-04T20:13:43.298Z,16.90
2019-04-04T20:16:12.253Z,17.23
2019-04-04T20:18:40.904Z,18.80
2019-04-04T20:21:07.400Z,22.90
2019-04-04T20:23:36.782Z,19.97
2019-04-04T20:26:09.707Z,20.13
2019-04-04T20:28:40.240Z,20.07
2019-04-04T20:31:09.772Z,18.23
2019-04-04T20:33:36.903Z,18.60
2019-04-04T20:36:12.271Z,18.13
2019-04-04T20:38:47.455Z,17.23
2019-04-04T20:41:16.965Z,19.70
2019-04-04T20:43:44.605Z,19.93
2019-04-04T20:46:14.303Z,18.40
2019-04-04T20:48:41.959Z,22.53
2019-04-04T20:51:20.314Z,25.97
2019-04-04T20:53:49.829Z,29.37
2019-04-04T20:56:22.175Z,25.60
2019-04-04T20:58:52.535Z,20.17
2019-04-04T21:01:22.107Z,20.10
2019-04-04T21:03:54.509Z,18.33
2019-04-04T21:06:24.646Z,20.57
2019-04-04T21:08:56.740Z,15.97
2019-04-04T21:11:24.372Z,18.10
2019-04-04T21:14:00.069Z,18.57
2019-04-04T21:16:29.346Z,19.53
2019-04-04T21:18:59.197Z,23.77
2019-04-04T21:21:27.611Z,20.13
2019-04-04T21:24:09.277Z,17.00
2019-04-04T21:26:43.589Z,16.48
2019-04-04T21:29:13.013Z,14.80
2019-04-04T21:31:54.108Z,18.47
2019-04-04T21:34:29.581Z,15.30
2019-04-04T21:37:02.151Z,19.40
2019-04-04T21:39:37.778Z,21.53
2019-04-04T21:42:11.794Z,20.63
2019-04-04T21:44:47.507Z,19.23
2019-04-04T21:47:17.098Z,20.97
2019-04-04T21:50:00.323Z,17.13
2019-04-04T21:52:29.646Z,18.40
2019-04-04T21:55:05.903Z,21.60
2019-04-04T21:57:41.435Z,23.70
2019-04-04T22:00:14.846Z,20.27
2019-04-04T22:02:44.593Z,22.73
2019-04-04T22:05:16.894Z,25.20
2019-04-04T22:07:46.394Z,19.63
2019-04-04T22:10:18.710Z,19.90
2019-04-04T22:12:45.243Z,20.00
2019-04-04T22:15:23.666Z,20.43
2019-04-04T22:18:01.283Z,18.73
2019-04-04T22:20:31.228Z,20.10
2019-04-04T22:23:34.902Z,21.43
2019-04-04T22:26:01.558Z,20.23
2019-04-04T22:28:35.098Z,21.83
2019-04-04T22:31:03.051Z,18.27
2019-04-04T22:33:36.202Z,20.10
2019-04-04T22:36:02.853Z,17.57
2019-04-04T22:38:29.135Z,21.80
2019-04-04T22:41:02.051Z,21.67
2019-04-04T22:44:03.534Z,19.57
2019-04-04T22:46:38.112Z,21.73
2019-04-04T22:49:07.697Z,21.73
2019-04-04T22:51:49.232Z,22.63
2019-04-04T22:54:18.737Z,24.43
2019-04-04T22:56:47.438Z,20.37
2019-04-04T22:59:16.963Z,23.83
2019-04-04T23:01:46.390Z,22.63
2019-04-04T23:04:21.557Z,20.37
2019-04-04T23:06:51.127Z,17.90
2019-04-04T23:10:17.357Z,24.93
2019-04-04T23:12:49.909Z,22.77
2019-04-04T23:15:25.225Z,22.47
2019-04-04T23:17:53.593Z,19.07
2019-04-04T23:20:23.744Z,20.73
2019-04-04T23:22:52.969Z,24.17
2019-04-04T23:25:26.102Z,25.13
2019-04-04T23:27:56.321Z,27.70
2019-04-04T23:30:23.202Z,28.17
2019-04-04T23:32:54.947Z,29.00
2019-04-04T23:38:01.320Z,23.80
2019-04-04T23:40:29.728Z,25.33
2019-04-04T23:43:02.626Z,30.17
2019-04-04T23:45:32.019Z,30.53
2019-04-04T23:48:04.389Z,32.20
2019-04-04T23:50:33.778Z,34.27
2019-04-04T23:53:06.207Z,38.60
2019-04-04T23:55:35.609Z,34.57
2019-04-04T23:58:14.838Z,30.27
